createdAt,value
2019-02-02T19:49:08.241Z,85.51
2019-02-02T19:51:36.488Z,85.59
2019-02-02T19:54:07.548Z,85.84
2019-02-02T19:56:34.915Z,86.11
2019-02-02T19:59:03.146Z,86.11
2019-02-02T20:01:31.443Z,85.92
2019-02-02T20:03:59.667Z,86.02
2019-02-02T20:06:27.907Z,85.47
2019-02-02T20:08:56.135Z,85.47
2019-02-02T20:11:24.375Z,85.80
2019-02-02T20:13:52.833Z,85.70
2019-02-02T20:16:21.289Z,85.67
2019-02-02T20:18:49.762Z,85.26
2019-02-02T20:21:18.004Z,85.26
2019-02-02T20:23:46.461Z,85.19
2019-02-02T20:26:14.915Z,85.45
2019-02-02T20:28:43.174Z,85.05
2019-02-02T20:31:11.477Z,85.13
2019-02-02T20:33:39.710Z,84.81
2019-02-02T20:36:07.935Z,84.81
2019-02-02T20:38:36.203Z,84.81
2019-02-02T20:41:04.533Z,84.84
2019-02-02T20:43:32.762Z,84.84
2019-02-02T20:46:01.229Z,85.00
2019-02-02T20:48:29.470Z,85.00
2019-02-02T20:50:57.689Z,84.56
2019-02-02T20:53:26.163Z,84.74
2019-02-02T20:55:54.400Z,84.58
2019-02-02T20:58:22.676Z,84.58
2019-02-02T21:00:50.887Z,84.52
2019-02-02T21:03:19.125Z,84.50
2019-02-02T21:05:52.458Z,84.51
2019-02-02T21:08:17.827Z,84.09
2019-02-02T21:10:46.298Z,84.09
2019-02-02T21:13:14.546Z,84.08
2019-02-02T21:15:42.794Z,84.26
2019-02-02T21:18:11.978Z,84.26
2019-02-02T21:20:40.518Z,84.43
2019-02-02T21:23:08.724Z,84.32
2019-02-02T21:25:36.949Z,84.32
2019-02-02T21:28:05.195Z,84.10
2019-02-02T21:30:34.875Z,84.02
2019-02-02T21:33:03.620Z,83.44
2019-02-02T21:35:31.851Z,83.38
2019-02-02T21:38:00.097Z,83.38
2019-02-02T21:40:33.015Z,83.69
2019-02-02T21:43:01.504Z,83.53
2019-02-02T21:45:29.758Z,83.42
2019-02-02T21:47:58.218Z,83.43
2019-02-02T21:50:26.692Z,83.53
2019-02-02T21:52:55.200Z,83.50
2019-02-02T21:55:28.326Z,83.21
2019-02-02T21:57:56.798Z,83.21
2019-02-02T22:00:37.415Z,83.23
2019-02-02T22:03:06.684Z,83.25
2019-02-02T22:05:35.150Z,83.30
2019-02-02T22:08:03.515Z,83.30
2019-02-02T22:10:31.975Z,83.11
2019-02-02T22:13:00.427Z,82.31
2019-02-02T22:15:29.799Z,82.31
2019-02-02T22:17:58.028Z,82.78
2019-02-02T22:20:26.262Z,82.78
2019-02-02T22:22:54.516Z,83.08
2019-02-02T22:25:27.742Z,83.33
2019-02-02T22:27:56.197Z,83.08
2019-02-02T22:30:31.982Z,82.86
2019-02-02T22:33:00.530Z,83.11
2019-02-02T22:35:28.764Z,83.11
2019-02-02T22:37:57.444Z,82.92
2019-02-02T22:40:27.499Z,83.51
2019-02-02T22:42:55.949Z,82.92
2019-02-02T22:45:24.185Z,83.73
2019-02-02T22:47:52.457Z,83.73
2019-02-02T22:50:25.348Z,83.31
2019-02-02T22:52:53.834Z,83.30
2019-02-02T22:55:23.198Z,83.30
2019-02-02T22:57:51.444Z,83.50
2019-02-02T23:00:30.174Z,83.24
2019-02-02T23:02:59.119Z,83.38
2019-02-02T23:05:33.204Z,83.12
2019-02-02T23:08:04.837Z,83.12
2019-02-02T23:10:36.458Z,83.88
2019-02-02T23:13:22.982Z,83.88
2019-02-02T23:16:16.624Z,84.02
2019-02-02T23:18:46.733Z,84.02
2019-02-02T23:21:15.046Z,84.18
2019-02-02T23:23:43.277Z,84.21
2019-02-02T23:26:11.509Z,83.98
2019-02-02T23:28:39.975Z,84.13
2019-02-02T23:31:08.234Z,82.95
2019-02-02T23:33:36.841Z,83.52
2019-02-02T23:36:05.400Z,83.52
2019-02-02T23:38:33.697Z,82.07
2019-02-02T23:41:01.971Z,81.05
2019-02-02T23:43:30.199Z,81.24
2019-02-02T23:45:58.443Z,81.24
2019-02-02T23:48:27.101Z,81.96
2019-02-02T23:50:55.346Z,80.51
2019-02-02T23:53:23.836Z,81.02
2019-02-02T23:55:52.286Z,81.02
2019-02-02T23:58:20.755Z,80.42
